Time;durP1;ratioP1;P1;durP2;ratioP2;P2;SDS_P1;SDS_P2;PMS_P1;PMS_P2;Temp;Humidity;BMP_temperature;BMP_pressure;BME280_temperature;BME280_humidity;BME280_pressure;Samples;Min_cycle;Max_cycle;Signal;HPM_P1;HPM_P2
2022/10/01 00:00:27;;;;;;;6.75;4.70;;;12.40;99.90;;;;;;5107730;27;37497;-59
2022/10/01 00:02:54;;;;;;;8.50;4.57;;;12.40;99.90;;;;;;5107854;27;36480;-60
2022/10/01 00:05:22;;;;;;;8.20;4.93;;;12.30;99.90;;;;;;5108150;27;37691;-59
2022/10/01 00:07:49;;;;;;;6.68;4.32;;;12.30;99.90;;;;;;5108066;27;37506;-59
2022/10/01 00:10:18;;;;;;;7.28;5.30;;;12.30;99.90;;;;;;5108284;27;37360;-59
2022/10/01 00:12:47;;;;;;;8.13;5.32;;;12.30;99.90;;;;;;5108733;27;37895;-60
2022/10/01 00:15:17;;;;;;;7.72;5.93;;;12.30;99.90;;;;;;5108736;27;37589;-60
2022/10/01 00:17:46;;;;;;;8.43;4.80;;;12.30;99.90;;;;;;5109389;27;38582;-60
2022/10/01 00:20:14;;;;;;;9.15;5.45;;;12.30;99.90;;;;;;5106826;27;37330;-60
2022/10/01 00:22:41;;;;;;;8.40;4.93;;;12.30;99.90;;;;;;5107183;27;36803;-59
2022/10/01 00:25:09;;;;;;;7.15;5.43;;;12.30;99.90;;;;;;5108786;27;37030;-59
2022/10/01 00:27:38;;;;;;;8.43;5.85;;;12.30;99.90;;;;;;5109459;27;39395;-59
2022/10/01 00:30:07;;;;;;;12.57;5.80;;;12.20;99.90;;;;;;5108129;27;36279;-60
2022/10/01 00:32:34;;;;;;;8.40;5.40;;;12.20;99.90;;;;;;5105987;27;37988;-60
2022/10/01 00:35:02;;;;;;;7.60;5.50;;;12.20;99.90;;;;;;5106734;27;38055;-59
2022/10/01 00:37:29;;;;;;;8.93;5.38;;;12.20;99.90;;;;;;5108798;27;39156;-59
2022/10/01 00:39:57;;;;;;;9.32;5.80;;;12.20;99.90;;;;;;5108881;27;37950;-60
2022/10/01 00:42:26;;;;;;;12.27;6.22;;;12.20;99.90;;;;;;5108235;27;36907;-60
2022/10/01 00:44:55;;;;;;;10.63;5.75;;;12.20;99.90;;;;;;5105860;27;36959;-59
2022/10/01 00:47:29;;;;;;;9.25;6.88;;;12.20;99.90;;;;;;5107744;27;39629;-60
2022/10/01 00:50:01;;;;;;;9.02;6.13;;;12.20;99.90;;;;;;5106314;27;37375;-59
2022/10/01 00:52:31;;;;;;;9.45;6.50;;;12.10;99.90;;;;;;5106747;27;36716;-59
2022/10/01 00:55:03;;;;;;;8.93;6.90;;;12.10;99.90;;;;;;5106121;27;37958;-59
2022/10/01 00:57:31;;;;;;;9.80;6.60;;;12.10;99.90;;;;;;5107334;27;37940;-59
2022/10/01 01:00:04;;;;;;;9.77;7.00;;;12.00;99.90;;;;;;5105793;27;20130;-59
2022/10/01 01:02:31;;;;;;;9.00;6.38;;;12.10;99.90;;;;;;5106771;27;38133;-59
2022/10/01 01:04:59;;;;;;;11.35;6.90;;;12.10;99.90;;;;;;5107963;27;37970;-59
2022/10/01 01:07:28;;;;;;;8.68;6.35;;;12.00;99.90;;;;;;5106771;27;37969;-59
2022/10/01 01:09:55;;;;;;;12.25;6.78;;;12.00;99.90;;;;;;5106499;27;39138;-59
2022/10/01 01:12:35;;;;;;;10.13;6.63;;;12.00;99.90;;;;;;5107631;27;37738;-59
2022/10/01 01:15:13;;;;;;;9.88;5.95;;;12.10;99.90;;;;;;5107090;27;36352;-60
2022/10/01 01:17:53;;;;;;;10.32;6.78;;;12.10;99.90;;;;;;5107188;27;37842;-59
2022/10/01 01:20:54;;;;;;;10.52;6.95;;;12.00;99.90;;;;;;5106827;27;39459;-60
2022/10/01 01:23:59;;;;;;;10.88;7.00;;;12.00;99.90;;;;;;5082720;27;36925;-59
2022/10/01 01:26:37;;;;;;;11.55;6.75;;;12.00;99.90;;;;;;5106941;27;37801;-59
2022/10/01 01:29:11;;;;;;;11.93;6.63;;;12.00;99.90;;;;;;5107305;27;37698;-59
2022/10/01 01:31:45;;;;;;;8.43;6.43;;;12.00;99.90;;;;;;5106048;27;38079;-59
2022/10/01 01:34:18;;;;;;;10.70;5.97;;;12.00;99.90;;;;;;5107344;27;36471;-59
2022/10/01 01:36:48;;;;;;;;;;;12.00;99.90;;;;;;5107319;27;37502;-60
2022/10/01 01:39:17;;;;;;;11.30;6.18;;;12.00;99.90;;;;;;5108188;27;37673;-59
2022/10/01 01:41:49;;;;;;;10.07;6.97;;;12.00;99.90;;;;;;5107154;27;37463;-60
2022/10/01 01:44:23;;;;;;;9.07;6.55;;;12.00;99.90;;;;;;5106338;27;37069;-59
2022/10/01 01:46:55;;;;;;;11.65;6.45;;;12.00;99.90;;;;;;5106780;27;37798;-60
2022/10/01 01:49:23;;;;;;;8.20;6.38;;;11.90;99.90;;;;;;5108273;27;37800;-59
2022/10/01 01:51:58;;;;;;;10.50;7.45;;;12.00;99.90;;;;;;5106349;27;38904;-59
2022/10/01 01:54:25;;;;;;;9.95;6.40;;;12.00;99.90;;;;;;5107019;27;36482;-59
2022/10/01 01:56:55;;;;;;;9.05;6.20;;;11.90;99.90;;;;;;5107997;27;38414;-60
2022/10/01 01:59:25;;;;;;;8.35;6.10;;;11.90;99.90;;;;;;5107268;27;38600;-59
2022/10/01 02:01:52;;;;;;;9.63;5.93;;;12.00;99.90;;;;;;5106302;27;37314;-60
2022/10/01 02:04:23;;;;;;;9.52;6.25;;;11.90;99.90;;;;;;5107892;27;37440;-59
2022/10/01 02:07:14;;;;;;;7.88;5.50;;;11.90;99.90;;;;;;5107925;27;38714;-59
2022/10/01 02:09:49;;;;;;;8.70;5.68;;;11.90;99.90;;;;;;5107404;27;37883;-60
2022/10/01 02:12:29;;;;;;;8.93;5.57;;;11.90;99.90;;;;;;5106506;27;37365;-60
2022/10/01 02:15:06;;;;;;;9.48;5.35;;;11.90;99.90;;;;;;5107112;27;36553;-60
2022/10/01 02:17:45;;;;;;;8.10;4.90;;;11.90;99.90;;;;;;5106591;27;37441;-60
2022/10/01 02:20:17;;;;;;;8.82;5.32;;;11.90;99.90;;;;;;5106535;27;37464;-60
2022/10/01 02:22:53;;;;;;;9.70;5.07;;;11.90;99.90;;;;;;5106610;27;38244;-59
2022/10/01 02:25:25;;;;;;;7.82;4.35;;;11.90;99.90;;;;;;5107437;27;36588;-60
2022/10/01 02:27:57;;;;;;;7.30;4.30;;;11.90;99.90;;;;;;5107513;27;36554;-59
2022/10/01 02:30:28;;;;;;;7.30;4.60;;;11.90;99.90;;;;;;5106345;27;37590;-59
2022/10/01 02:32:58;;;;;;;6.63;4.55;;;11.90;99.90;;;;;;5106496;27;36092;-60
2022/10/01 02:35:28;;;;;;;9.02;4.53;;;11.90;99.90;;;;;;5106729;27;37308;-59
2022/10/01 02:37:59;;;;;;;8.18;4.65;;;11.90;99.90;;;;;;5107641;27;36307;-59
2022/10/01 02:40:28;;;;;;;7.05;4.53;;;11.90;99.90;;;;;;5105110;27;37919;-59
2022/10/01 02:42:57;;;;;;;6.43;3.97;;;11.90;99.90;;;;;;5106204;27;37613;-59
2022/10/01 02:45:30;;;;;;;6.10;3.78;;;11.90;99.90;;;;;;5102577;27;36370;-59
2022/10/01 02:48:01;;;;;;;7.82;4.07;;;11.90;99.90;;;;;;5106552;27;37931;-59
2022/10/01 02:50:35;;;;;;;7.20;3.83;;;11.90;99.90;;;;;;5106435;27;38225;-59
2022/10/01 02:53:06;;;;;;;6.13;4.38;;;11.90;99.90;;;;;;5105856;27;37259;-58
2022/10/01 02:55:38;;;;;;;5.28;3.45;;;11.90;99.90;;;;;;5104956;27;36522;-58
2022/10/01 02:58:06;;;;;;;6.25;3.70;;;11.90;99.90;;;;;;5105954;27;37510;-58
2022/10/01 03:00:35;;;;;;;7.15;3.40;;;11.90;99.90;;;;;;5108703;27;36551;-58
2022/10/01 03:03:02;;;;;;;7.95;3.83;;;11.90;99.90;;;;;;5109051;27;36209;-58
2022/10/01 03:05:29;;;;;;;7.47;4.35;;;11.90;99.90;;;;;;5109239;27;36712;-58
2022/10/01 03:07:57;;;;;;;5.32;3.25;;;11.90;99.90;;;;;;5111076;27;39509;-58
2022/10/01 03:10:24;;;;;;;6.22;3.55;;;11.90;99.90;;;;;;5110435;27;36383;-58
2022/10/01 03:12:51;;;;;;;5.53;3.33;;;11.90;99.90;;;;;;5109551;27;37209;-58
2022/10/01 03:15:19;;;;;;;5.70;3.13;;;12.00;99.90;;;;;;5108506;27;37663;-58
2022/10/01 03:17:51;;;;;;;7.18;3.50;;;11.90;99.90;;;;;;5109832;27;37569;-59
2022/10/01 03:20:18;;;;;;;6.35;3.47;;;12.00;99.90;;;;;;5107874;27;36452;-59
2022/10/01 03:22:46;;;;;;;5.60;3.95;;;12.00;99.90;;;;;;5109004;27;37567;-58
2022/10/01 03:25:13;;;;;;;6.60;3.75;;;12.00;99.90;;;;;;5107658;27;37338;-58
2022/10/01 03:27:41;;;;;;;5.20;3.10;;;12.00;99.90;;;;;;5108049;27;36490;-58
2022/10/01 03:30:09;;;;;;;5.93;3.28;;;12.00;99.90;;;;;;5109240;27;37863;-58
2022/10/01 03:32:36;;;;;;;5.60;2.92;;;12.00;99.90;;;;;;5108730;27;37377;-59
2022/10/01 03:35:06;;;;;;;7.13;3.35;;;12.00;99.90;;;;;;5107642;27;35476;-59
2022/10/01 03:37:33;;;;;;;4.95;2.75;;;12.00;99.90;;;;;;5109577;27;37663;-58
2022/10/01 03:40:00;;;;;;;5.35;2.97;;;12.00;99.90;;;;;;5109342;27;37027;-59
2022/10/01 03:42:28;;;;;;;5.22;2.90;;;12.00;99.90;;;;;;5109824;27;39784;-59
2022/10/01 03:44:55;;;;;;;5.07;2.75;;;12.00;99.90;;;;;;5108008;27;37437;-59
2022/10/01 03:47:23;;;;;;;5.43;2.20;;;12.00;99.90;;;;;;5108657;27;37159;-60
2022/10/01 03:49:50;;;;;;;5.75;2.50;;;12.00;99.90;;;;;;5108763;27;38442;-58
2022/10/01 03:52:19;;;;;;;3.72;1.77;;;12.00;99.90;;;;;;5108059;27;37559;-59
2022/10/01 03:54:46;;;;;;;3.60;1.73;;;12.00;99.90;;;;;;5108163;27;37053;-59
2022/10/01 03:57:13;;;;;;;4.35;2.35;;;12.00;99.90;;;;;;5107771;27;36324;-59
2022/10/01 03:59:41;;;;;;;4.53;1.92;;;12.00;99.90;;;;;;5106241;27;37800;-59
2022/10/01 04:02:08;;;;;;;3.63;1.98;;;12.00;99.90;;;;;;5107851;27;38436;-59
2022/10/01 04:04:36;;;;;;;4.28;1.83;;;12.00;99.90;;;;;;5104994;27;39412;-59
2022/10/01 04:07:03;;;;;;;3.95;2.00;;;12.10;99.90;;;;;;5107976;27;37582;-59
2022/10/01 04:09:32;;;;;;;4.40;1.90;;;12.10;99.90;;;;;;5107879;27;37421;-59
2022/10/01 04:11:59;;;;;;;3.63;1.75;;;12.10;99.90;;;;;;5108274;27;37296;-59
2022/10/01 04:14:26;;;;;;;4.20;1.90;;;12.10;99.90;;;;;;5106299;27;37067;-59
2022/10/01 04:16:53;;;;;;;7.25;1.60;;;12.10;99.90;;;;;;5104147;27;39610;-59
2022/10/01 04:19:21;;;;;;;4.15;1.90;;;12.10;99.90;;;;;;5107544;27;36794;-59
2022/10/01 04:21:48;;;;;;;3.75;1.88;;;12.10;99.90;;;;;;5106566;27;38116;-59
2022/10/01 04:24:15;;;;;;;5.40;1.77;;;12.10;99.90;;;;;;5104529;27;37243;-58
2022/10/01 04:26:44;;;;;;;3.08;1.52;;;12.10;99.90;;;;;;5106612;27;40035;-58
2022/10/01 04:29:11;;;;;;;2.92;1.70;;;12.10;99.90;;;;;;5106602;27;38335;-59
2022/10/01 04:31:39;;;;;;;4.38;1.83;;;12.10;99.90;;;;;;5108233;27;38021;-58
2022/10/01 04:34:06;;;;;;;2.72;1.50;;;12.10;99.90;;;;;;5104753;27;36314;-58
2022/10/01 04:36:33;;;;;;;3.53;2.08;;;12.10;99.90;;;;;;5104776;27;37137;-58
2022/10/01 04:39:01;;;;;;;4.35;1.88;;;12.20;99.90;;;;;;5104761;27;37512;-59
2022/10/01 04:41:29;;;;;;;4.10;1.95;;;12.10;99.90;;;;;;5107081;27;36223;-59
2022/10/01 04:43:58;;;;;;;7.65;2.10;;;12.20;99.90;;;;;;5105301;27;36639;-59
2022/10/01 04:46:25;;;;;;;5.20;1.95;;;12.20;99.90;;;;;;5106684;27;37383;-58
2022/10/01 04:48:53;;;;;;;3.20;1.80;;;12.20;99.90;;;;;;5107332;27;37119;-58
2022/10/01 04:51:20;;;;;;;4.13;2.00;;;12.20;99.90;;;;;;5107482;27;37309;-59
2022/10/01 04:53:47;;;;;;;3.60;2.08;;;12.20;99.90;;;;;;5106066;27;38263;-58
2022/10/01 04:56:14;;;;;;;5.70;2.20;;;12.20;99.90;;;;;;5105658;27;39867;-59
2022/10/01 04:58:42;;;;;;;4.38;2.38;;;12.20;99.90;;;;;;5107440;27;38513;-58
2022/10/01 05:01:10;;;;;;;4.03;2.10;;;12.20;99.90;;;;;;5105127;27;36754;-59
2022/10/01 05:03:38;;;;;;;4.78;2.35;;;12.20;99.90;;;;;;5107202;27;39162;-59
2022/10/01 05:06:06;;;;;;;4.55;2.25;;;12.20;99.90;;;;;;5105533;27;37684;-58
2022/10/01 05:08:33;;;;;;;4.00;2.22;;;12.30;99.90;;;;;;5104970;27;39018;-58
2022/10/01 05:11:00;;;;;;;3.63;2.15;;;12.20;99.90;;;;;;5107558;27;37028;-59
2022/10/01 05:13:28;;;;;;;3.33;2.15;;;12.20;99.90;;;;;;5105717;27;36514;-59
2022/10/01 05:15:56;;;;;;;3.55;2.28;;;12.20;99.90;;;;;;5107230;27;37733;-59
2022/10/01 05:18:24;;;;;;;4.65;2.47;;;12.30;99.90;;;;;;5106637;27;37489;-58
2022/10/01 05:20:52;;;;;;;4.55;2.47;;;12.30;99.90;;;;;;5105450;27;37717;-59
2022/10/01 05:23:19;;;;;;;4.72;2.38;;;12.30;99.90;;;;;;5105387;27;36424;-59
2022/10/01 05:25:46;;;;;;;6.68;2.70;;;12.30;99.90;;;;;;5106498;27;36348;-59
2022/10/01 05:28:15;;;;;;;4.15;2.08;;;12.30;99.90;;;;;;5107677;27;37983;-59
2022/10/01 05:30:42;;;;;;;4.20;2.47;;;12.40;99.90;;;;;;5105411;27;37244;-59
2022/10/01 05:33:09;;;;;;;5.68;3.00;;;12.40;99.90;;;;;;5104317;27;36556;-58
2022/10/01 05:35:40;;;;;;;5.65;2.60;;;12.40;99.90;;;;;;5106257;27;36165;-59
2022/10/01 05:38:07;;;;;;;5.82;2.58;;;12.40;99.90;;;;;;5106565;27;37648;-59
2022/10/01 05:40:34;;;;;;;5.93;3.20;;;12.40;99.90;;;;;;5105934;27;36167;-59
2022/10/01 05:43:03;;;;;;;5.30;3.08;;;12.40;99.90;;;;;;5104398;27;36715;-59
2022/10/01 05:45:31;;;;;;;7.13;3.83;;;12.50;99.90;;;;;;5103535;27;37619;-59
2022/10/01 05:48:00;;;;;;;5.80;3.33;;;12.50;99.90;;;;;;5104149;27;37187;-59
2022/10/01 05:50:30;;;;;;;6.03;3.08;;;12.40;99.90;;;;;;5104133;27;38589;-59
2022/10/01 05:52:59;;;;;;;6.38;3.35;;;12.50;99.90;;;;;;5103473;27;36427;-59
2022/10/01 05:55:30;;;;;;;10.07;2.92;;;12.50;99.90;;;;;;5104080;27;36652;-59
2022/10/01 05:58:00;;;;;;;6.60;3.92;;;12.50;99.90;;;;;;5103869;27;39710;-59
2022/10/01 06:00:28;;;;;;;8.07;3.58;;;12.50;99.90;;;;;;5102416;27;39863;-59
2022/10/01 06:02:56;;;;;;;7.65;3.75;;;12.50;99.90;;;;;;5104183;27;36686;-59
2022/10/01 06:05:23;;;;;;;6.00;3.38;;;12.50;99.90;;;;;;5103955;27;38997;-59
2022/10/01 06:07:52;;;;;;;7.30;3.78;;;12.50;99.90;;;;;;5104032;27;38364;-59
2022/10/01 06:10:22;;;;;;;9.02;4.40;;;12.60;99.90;;;;;;5103611;27;37966;-59
2022/10/01 06:12:49;;;;;;;6.15;3.83;;;12.60;99.90;;;;;;5104462;27;36516;-58
2022/10/01 06:15:17;;;;;;;7.25;4.07;;;12.60;99.90;;;;;;5104224;27;36501;-59
2022/10/01 06:17:45;;;;;;;10.02;4.07;;;12.60;99.90;;;;;;5103350;27;37892;-59
2022/10/01 06:20:14;;;;;;;7.22;3.33;;;12.60;99.90;;;;;;5102079;27;40201;-59
2022/10/01 06:22:42;;;;;;;5.88;3.53;;;12.60;99.90;;;;;;5102477;27;35394;-58
2022/10/01 06:25:11;;;;;;;7.32;3.92;;;12.70;99.90;;;;;;5100336;27;37606;-59
2022/10/01 06:27:39;;;;;;;5.40;3.60;;;12.70;99.90;;;;;;5102801;27;37169;-58
2022/10/01 06:30:08;;;;;;;6.90;3.63;;;12.70;99.90;;;;;;5105023;27;36240;-58
2022/10/01 06:32:35;;;;;;;7.80;3.90;;;12.70;99.90;;;;;;5102044;27;35335;-59
2022/10/01 06:35:03;;;;;;;5.80;3.80;;;12.70;99.90;;;;;;5104648;27;37775;-65
2022/10/01 06:37:30;;;;;;;8.15;3.58;;;12.70;99.90;;;;;;5101595;27;37163;-59
2022/10/01 06:39:58;;;;;;;8.30;4.35;;;12.70;99.90;;;;;;5103158;27;39161;-59
2022/10/01 06:42:25;;;;;;;7.35;3.78;;;12.80;99.90;;;;;;5101780;27;37378;-59
2022/10/01 06:44:54;;;;;;;9.48;4.07;;;12.80;99.90;;;;;;5103192;27;40143;-59
2022/10/01 06:47:21;;;;;;;6.45;3.70;;;12.80;99.90;;;;;;5101906;27;38159;-59
2022/10/01 06:49:48;;;;;;;9.13;4.35;;;12.90;99.90;;;;;;5103056;27;36933;-58
2022/10/01 06:55:01;;;;;;;7.70;3.70;;;13.00;99.90;;;;;;5102804;27;39262;-59
2022/10/01 06:57:29;;;;;;;7.72;3.90;;;13.00;99.90;;;;;;5103475;27;39859;-59
2022/10/01 06:59:58;;;;;;;6.85;3.65;;;13.00;99.90;;;;;;5102777;27;38693;-59
2022/10/01 07:02:28;;;;;;;7.80;3.72;;;13.00;99.90;;;;;;5103296;27;39039;-59
2022/10/01 07:04:58;;;;;;;10.88;4.38;;;13.10;99.90;;;;;;5103333;27;36426;-59
2022/10/01 07:07:28;;;;;;;9.65;4.53;;;13.10;99.90;;;;;;5103315;27;39673;-59
2022/10/01 07:09:56;;;;;;;8.38;3.92;;;13.20;99.90;;;;;;5102096;27;37506;-59
2022/10/01 07:12:23;;;;;;;10.85;4.60;;;13.20;99.90;;;;;;5105020;27;37936;-59
2022/10/01 07:14:51;;;;;;;8.50;3.60;;;13.30;99.90;;;;;;5103856;27;38983;-58
2022/10/01 07:17:19;;;;;;;7.78;3.30;;;13.30;99.90;;;;;;5102918;27;37420;-59
2022/10/01 07:19:47;;;;;;;9.13;3.55;;;13.30;99.90;;;;;;5102346;27;37558;-59
2022/10/01 07:22:14;;;;;;;7.63;2.92;;;13.40;99.90;;;;;;5103323;27;37127;-59
2022/10/01 07:24:42;;;;;;;19.42;4.47;;;13.40;99.90;;;;;;5101198;27;37329;-59
2022/10/01 07:27:09;;;;;;;11.05;3.40;;;13.40;99.90;;;;;;5103094;27;39156;-58
2022/10/01 07:29:37;;;;;;;8.82;3.08;;;13.40;99.90;;;;;;5100348;27;40867;-59
2022/10/01 07:32:07;;;;;;;9.88;3.15;;;13.40;99.90;;;;;;5099773;27;36354;-59
2022/10/01 07:34:39;;;;;;;10.30;2.85;;;13.40;99.90;;;;;;5102248;27;36391;-59
2022/10/01 07:37:06;;;;;;;10.73;3.25;;;13.40;99.90;;;;;;5099232;27;36554;-59
2022/10/01 07:39:33;;;;;;;9.00;3.17;;;13.40;99.90;;;;;;5102473;27;38694;-59
2022/10/01 07:42:01;;;;;;;15.68;4.05;;;13.40;99.90;;;;;;5102942;27;37593;-58
2022/10/01 07:44:28;;;;;;;13.85;3.53;;;13.40;99.90;;;;;;5103947;27;37739;-59
2022/10/01 07:46:56;;;;;;;8.25;3.00;;;13.50;99.90;;;;;;5105054;27;37822;-59
2022/10/01 07:49:24;;;;;;;10.73;2.90;;;13.50;99.90;;;;;;5105470;27;38327;-59
2022/10/01 07:51:53;;;;;;;18.48;2.83;;;13.60;99.90;;;;;;5105063;27;38432;-59
2022/10/01 07:54:21;;;;;;;10.93;2.83;;;13.60;99.90;;;;;;5105931;27;37634;-59
2022/10/01 07:56:50;;;;;;;10.43;2.42;;;13.70;99.90;;;;;;5106038;27;38481;-58
2022/10/01 07:59:18;;;;;;;21.65;3.60;;;13.70;99.90;;;;;;5105966;27;37582;-58
2022/10/01 08:01:48;;;;;;;10.93;2.42;;;13.80;99.90;;;;;;5101674;27;36361;-59
2022/10/01 08:07:02;;;;;;;12.77;2.70;;;13.80;99.90;;;;;;5105058;27;37742;-59
2022/10/01 08:09:29;;;;;;;12.95;2.53;;;13.90;99.90;;;;;;5104225;27;37347;-59
2022/10/01 08:11:57;;;;;;;13.73;2.78;;;13.90;99.90;;;;;;5105973;27;36523;-59
2022/10/01 08:14:24;;;;;;;13.15;2.30;;;14.00;99.90;;;;;;5104649;27;37628;-59
2022/10/01 08:16:55;;;;;;;19.67;3.05;;;14.00;99.90;;;;;;5105564;27;37912;-59
2022/10/01 08:19:23;;;;;;;12.68;3.15;;;14.10;99.90;;;;;;5104760;27;36155;-59
2022/10/01 08:21:51;;;;;;;16.67;2.65;;;14.10;99.90;;;;;;5105859;27;37338;-59
2022/10/01 08:24:20;;;;;;;13.45;2.92;;;14.10;99.90;;;;;;5105126;27;37705;-58
2022/10/01 08:26:53;;;;;;;10.75;2.20;;;14.20;99.90;;;;;;5103947;27;38732;-59
2022/10/01 08:29:20;;;;;;;17.63;2.72;;;14.20;99.90;;;;;;5105365;27;37874;-59
2022/10/01 08:31:48;;;;;;;13.02;2.35;;;14.30;99.90;;;;;;5105055;27;36185;-59
2022/10/01 08:34:15;;;;;;;14.48;2.83;;;14.30;99.90;;;;;;5105389;27;39601;-59
2022/10/01 08:36:42;;;;;;;17.80;2.50;;;14.40;99.90;;;;;;5105110;27;36607;-59
2022/10/01 08:39:11;;;;;;;16.75;2.63;;;14.40;99.90;;;;;;5105096;27;39797;-59
2022/10/01 08:41:51;;;;;;;15.32;2.40;;;14.50;99.90;;;;;;5105947;27;36697;-58
2022/10/01 08:44:24;;;;;;;15.98;2.60;;;14.60;99.90;;;;;;5105773;27;37426;-59
2022/10/01 08:46:54;;;;;;;20.35;3.03;;;14.60;99.90;;;;;;5106427;27;37576;-59
2022/10/01 08:49:26;;;;;;;13.90;2.85;;;14.70;99.90;;;;;;5105721;27;38205;-59
2022/10/01 08:51:58;;;;;;;14.77;2.67;;;14.80;99.90;;;;;;5106134;27;36729;-59
2022/10/01 08:54:33;;;;;;;15.13;2.83;;;14.90;99.90;;;;;;5106793;27;37120;-59
2022/10/01 08:57:05;;;;;;;13.43;2.53;;;15.00;99.90;;;;;;5106438;27;37546;-59
2022/10/01 08:59:42;;;;;;;8.95;2.15;;;15.00;99.90;;;;;;5105298;27;37283;-59
2022/10/01 09:02:22;;;;;;;14.15;2.35;;;15.00;99.90;;;;;;5107122;27;36459;-59
2022/10/01 09:04:53;;;;;;;21.55;3.00;;;15.00;99.90;;;;;;5105471;27;36876;-59
2022/10/01 09:07:34;;;;;;;17.38;2.90;;;15.10;99.90;;;;;;5106751;27;38624;-59
2022/10/01 09:10:16;;;;;;;17.48;2.13;;;15.10;99.90;;;;;;5106683;27;37379;-60
2022/10/01 09:12:51;;;;;;;14.05;2.38;;;15.10;99.90;;;;;;5108345;27;35410;-59
2022/10/01 09:15:27;;;;;;;10.90;2.28;;;15.20;99.90;;;;;;5106884;27;37717;-59
2022/10/01 09:18:07;;;;;;;21.52;3.05;;;15.30;99.90;;;;;;5106724;27;38512;-60
2022/10/01 09:20:38;;;;;;;11.80;2.53;;;15.40;99.90;;;;;;5106480;27;37268;-60
2022/10/01 09:23:19;;;;;;;15.93;3.00;;;15.40;99.90;;;;;;5106623;27;36832;-60
2022/10/01 09:25:50;;;;;;;13.07;2.20;;;15.40;99.90;;;;;;5106248;27;37292;-59
2022/10/01 09:28:21;;;;;;;17.08;3.35;;;15.40;99.90;;;;;;5105879;27;38040;-59
2022/10/01 09:30:55;;;;;;;11.30;2.80;;;15.40;99.90;;;;;;5106042;27;38878;-59
2022/10/01 09:33:28;;;;;;;14.30;2.58;;;15.40;99.90;;;;;;5107411;27;36087;-59
2022/10/01 09:36:05;;;;;;;12.70;2.97;;;15.50;99.90;;;;;;5105153;27;38862;-59
2022/10/01 09:38:38;;;;;;;8.27;1.30;;;15.50;99.90;;;;;;5106359;27;36631;-60
2022/10/01 09:41:07;;;;;;;6.00;1.50;;;15.40;99.90;;;;;;5105753;27;36884;-60
2022/10/01 09:43:39;;;;;;;7.65;1.85;;;15.30;99.90;;;;;;5106499;27;37096;-59
2022/10/01 09:46:12;;;;;;;5.68;1.25;;;15.30;99.90;;;;;;5104585;27;38122;-60
2022/10/01 09:48:45;;;;;;;6.88;1.45;;;15.30;99.90;;;;;;5105282;27;38441;-60
2022/10/01 09:51:17;;;;;;;6.80;1.20;;;15.20;99.90;;;;;;5105111;27;37335;-60
2022/10/01 09:53:51;;;;;;;10.55;1.90;;;15.10;99.90;;;;;;5105827;27;37424;-60
2022/10/01 09:56:26;;;;;;;7.82;1.73;;;15.00;99.90;;;;;;5105784;27;37601;-59
2022/10/01 09:59:01;;;;;;;9.35;1.83;;;14.90;99.90;;;;;;5104519;27;37813;-60
2022/10/01 10:01:41;;;;;;;9.63;1.48;;;14.70;99.90;;;;;;5104903;27;36108;-59
2022/10/01 10:04:09;;;;;;;7.68;1.50;;;14.50;99.90;;;;;;5105062;27;36855;-60
2022/10/01 10:06:38;;;;;;;10.43;1.30;;;14.50;99.90;;;;;;5104986;27;37577;-58
2022/10/01 10:09:16;;;;;;;6.45;1.45;;;14.40;99.90;;;;;;5106479;27;38240;-59
2022/10/01 10:11:45;;;;;;;12.80;1.67;;;14.30;99.90;;;;;;5107719;27;39009;-59
2022/10/01 10:14:18;;;;;;;6.57;1.55;;;14.30;99.90;;;;;;5100531;27;36439;-59
2022/10/01 10:16:48;;;;;;;6.32;1.15;;;14.20;99.90;;;;;;5105137;27;37834;-59
2022/10/01 10:19:21;;;;;;;8.05;1.50;;;14.10;99.90;;;;;;5106224;27;36668;-59
2022/10/01 10:21:53;;;;;;;5.63;1.17;;;14.10;99.90;;;;;;5104969;27;37458;-59
2022/10/01 10:24:25;;;;;;;9.10;1.95;;;14.00;99.90;;;;;;5105363;27;37186;-59
2022/10/01 10:26:55;;;;;;;5.53;1.05;;;13.90;99.90;;;;;;5106442;27;36867;-59
2022/10/01 10:29:30;;;;;;;7.78;1.25;;;13.90;99.90;;;;;;5107267;27;37809;-59
2022/10/01 10:31:58;;;;;;;7.20;1.20;;;13.80;99.90;;;;;;5106824;27;37368;-58
2022/10/01 10:34:32;;;;;;;5.75;0.98;;;13.80;99.90;;;;;;5107413;27;35827;-59
2022/10/01 10:37:04;;;;;;;8.32;1.52;;;13.80;99.90;;;;;;5104423;27;36486;-59
2022/10/01 10:39:35;;;;;;;5.97;0.95;;;13.80;99.90;;;;;;5104615;27;38671;-59
2022/10/01 10:42:05;;;;;;;5.38;0.98;;;13.80;99.90;;;;;;5104468;27;37113;-59
2022/10/01 10:44:38;;;;;;;7.70;1.13;;;13.80;99.90;;;;;;5104061;27;36444;-59
2022/10/01 10:47:09;;;;;;;4.65;1.08;;;13.80;99.90;;;;;;5105487;27;38154;-59
2022/10/01 10:49:43;;;;;;;7.43;1.55;;;13.80;99.90;;;;;;5104629;27;36517;-59
2022/10/01 10:52:20;;;;;;;6.68;1.20;;;13.80;99.90;;;;;;5104163;27;36887;-59
2022/10/01 10:54:49;;;;;;;6.13;0.98;;;13.80;99.90;;;;;;5103730;27;36504;-59
2022/10/01 10:57:21;;;;;;;5.05;0.90;;;13.80;99.90;;;;;;5105429;27;38227;-59
2022/10/01 11:00:00;;;;;;;5.70;0.85;;;13.80;99.90;;;;;;5104634;27;38537;-59
2022/10/01 11:02:29;;;;;;;8.57;1.10;;;13.80;99.90;;;;;;5105304;27;37556;-59
2022/10/01 11:05:02;;;;;;;4.63;1.35;;;13.80;99.90;;;;;;5105679;27;37372;-59
2022/10/01 11:07:30;;;;;;;6.63;1.13;;;13.80;99.90;;;;;;5103744;27;37135;-59
2022/10/01 11:10:10;;;;;;;7.47;1.27;;;13.90;99.90;;;;;;5104983;27;37239;-58
2022/10/01 11:12:55;;;;;;;10.70;1.98;;;13.80;99.90;;;;;;5104485;27;37302;-59
2022/10/01 11:15:36;;;;;;;6.75;1.42;;;13.90;99.90;;;;;;5106272;27;38154;-60
2022/10/01 11:18:26;;;;;;;4.63;0.82;;;13.90;99.90;;;;;;5105418;27;36295;-59
2022/10/01 11:21:11;;;;;;;9.45;1.33;;;14.10;99.90;;;;;;5108244;27;37764;-59
2022/10/01 11:24:04;;;;;;;8.00;1.48;;;14.20;99.90;;;;;;5106970;27;37219;-60
2022/10/01 11:26:40;;;;;;;5.72;1.20;;;14.40;99.90;;;;;;5107258;27;36541;-60
2022/10/01 11:29:22;;;;;;;5.47;1.35;;;14.60;99.90;;;;;;5108864;27;37535;-59
2022/10/01 11:31:57;;;;;;;8.65;1.45;;;14.70;99.90;;;;;;5109216;27;37650;-59
2022/10/01 11:35:01;;;;;;;8.82;1.27;;;14.70;99.90;;;;;;5110202;27;37353;-60
2022/10/01 11:37:41;;;;;;;6.07;1.35;;;14.80;99.90;;;;;;5110207;27;36650;-59
2022/10/01 11:40:17;;;;;;;10.15;1.70;;;15.00;99.90;;;;;;5109012;27;38892;-59
2022/10/01 11:42:48;;;;;;;10.27;2.00;;;15.10;99.90;;;;;;5109506;27;37179;-60
2022/10/01 11:45:20;;;;;;;15.77;2.10;;;15.20;99.90;;;;;;5110453;27;37735;-59
2022/10/01 11:47:52;;;;;;;12.63;2.10;;;15.20;99.90;;;;;;5108413;27;37395;-60
2022/10/01 11:50:24;;;;;;;9.35;1.75;;;15.20;99.90;;;;;;5108668;27;36404;-59
2022/10/01 11:52:56;;;;;;;13.32;2.38;;;15.20;99.90;;;;;;5109209;27;36748;-59
2022/10/01 12:01:09;;;;;;;14.50;2.72;;;15.10;99.90;;;;;;5109294;27;39286;-59
2022/10/01 12:03:48;;;;;;;14.05;2.92;;;15.10;99.90;;;;;;5108919;27;36505;-59
2022/10/01 12:06:18;;;;;;;12.05;2.00;;;15.20;99.90;;;;;;5107649;27;38374;-60
2022/10/01 12:08:52;;;;;;;14.05;3.58;;;15.20;99.90;;;;;;5108262;27;37097;-60
2022/10/01 12:11:25;;;;;;;15.30;2.60;;;15.20;99.90;;;;;;5107639;27;39932;-59
2022/10/01 12:14:04;;;;;;;10.32;2.55;;;15.20;99.90;;;;;;5107629;27;39408;-59
2022/10/01 12:16:41;;;;;;;12.82;2.42;;;15.20;99.90;;;;;;5107872;27;38392;-60
2022/10/01 12:19:16;;;;;;;9.35;2.15;;;15.10;99.90;;;;;;5106478;27;36830;-59
2022/10/01 12:21:49;;;;;;;14.00;2.35;;;15.20;99.90;;;;;;5103625;27;38513;-59
2022/10/01 12:24:20;;;;;;;14.18;2.00;;;15.30;99.90;;;;;;5106415;27;37436;-59
2022/10/01 12:26:56;;;;;;;10.63;1.80;;;15.40;99.90;;;;;;5105959;27;39992;-59
2022/10/01 12:29:35;;;;;;;7.93;1.55;;;15.40;99.90;;;;;;5103926;27;36435;-59
2022/10/01 12:32:13;;;;;;;12.27;1.95;;;15.30;99.90;;;;;;5106857;27;36044;-59
2022/10/01 12:34:50;;;;;;;14.85;2.67;;;15.30;99.90;;;;;;5107137;27;37705;-59
2022/10/01 12:37:32;;;;;;;7.57;1.83;;;15.30;99.90;;;;;;5106199;27;36477;-59
2022/10/01 12:40:21;;;;;;;7.72;2.00;;;15.40;99.90;;;;;;5105363;27;36709;-59
2022/10/01 12:43:07;;;;;;;8.05;1.98;;;15.40;99.90;;;;;;5105951;27;38158;-59
2022/10/01 12:45:43;;;;;;;9.80;1.75;;;15.40;99.90;;;;;;5107081;27;36431;-59
2022/10/01 12:48:18;;;;;;;8.52;2.65;;;15.40;99.90;;;;;;5106779;27;39370;-59
2022/10/01 12:50:56;;;;;;;10.73;2.47;;;15.40;99.90;;;;;;5104801;27;36475;-60
2022/10/01 12:53:31;;;;;;;11.52;1.85;;;15.40;99.90;;;;;;5106475;27;37631;-59
2022/10/01 12:56:06;;;;;;;7.30;1.80;;;15.30;99.90;;;;;;5107999;27;37077;-59
2022/10/01 12:59:05;;;;;;;8.02;1.20;;;15.20;99.90;;;;;;5106518;27;38656;-59
2022/10/01 13:01:41;;;;;;;8.18;1.60;;;15.00;99.90;;;;;;5107101;27;37788;-59
2022/10/01 13:04:44;;;;;;;8.82;1.70;;;14.90;99.90;;;;;;5106681;27;37527;-59
2022/10/01 13:07:34;;;;;;;7.22;1.40;;;14.80;99.90;;;;;;5102986;27;36825;-59
2022/10/01 13:10:14;;;;;;;8.68;1.65;;;14.60;99.90;;;;;;5106330;27;37901;-59
2022/10/01 13:13:00;;;;;;;6.75;1.05;;;14.50;99.90;;;;;;5105520;27;37758;-59
2022/10/01 13:15:32;;;;;;;7.40;1.23;;;14.50;99.90;;;;;;5104579;27;37664;-59